createdAt,value
2023-04-04T00:00:00.798Z,984.57
2023-04-04T00:01:00.795Z,984.58
2023-04-04T00:02:00.774Z,984.55
2023-04-04T00:03:00.852Z,984.61
2023-04-04T00:04:00.817Z,984.60
2023-04-04T00:05:00.724Z,984.58
2023-04-04T00:06:00.721Z,984.56
2023-04-04T00:07:00.692Z,984.56
2023-04-04T00:08:00.688Z,984.52
2023-04-04T00:09:00.677Z,984.53
2023-04-04T00:10:00.659Z,984.55
2023-04-04T00:11:00.652Z,984.52
2023-04-04T00:12:00.644Z,984.57
2023-04-04T00:13:00.627Z,984.49
2023-04-04T00:14:00.702Z,984.56
2023-04-04T00:15:00.617Z,984.51
2023-04-04T00:16:00.584Z,984.48
2023-04-04T00:17:00.570Z,984.49
2023-04-04T00:18:00.556Z,984.48
2023-04-04T00:19:00.543Z,984.45
2023-04-04T00:20:00.521Z,984.45
2023-04-04T00:21:00.506Z,984.44
2023-04-04T00:22:00.496Z,984.37
2023-04-04T00:23:00.494Z,984.45
2023-04-04T00:24:00.469Z,984.41
2023-04-04T00:25:00.461Z,984.39
2023-04-04T00:26:00.451Z,984.38
2023-04-04T00:27:00.435Z,984.43
2023-04-04T00:28:00.487Z,984.36
2023-04-04T00:29:00.405Z,984.42
2023-04-04T00:30:00.392Z,984.34
2023-04-04T00:31:00.404Z,984.37
2023-04-04T00:32:00.387Z,984.36
2023-04-04T00:33:00.411Z,984.34
2023-04-04T00:34:00.334Z,984.36
2023-04-04T00:35:00.321Z,984.28
2023-04-04T00:36:00.366Z,984.28
2023-04-04T00:37:00.306Z,984.30
2023-04-04T00:38:00.297Z,984.26
2023-04-04T00:39:00.275Z,984.27
2023-04-04T00:40:00.319Z,984.33
2023-04-04T00:41:00.262Z,984.23
2023-04-04T00:42:00.244Z,984.31
2023-04-04T00:43:00.233Z,984.36
2023-04-04T00:44:00.204Z,984.27
2023-04-04T00:45:00.196Z,984.29
2023-04-04T00:46:00.248Z,984.30
2023-04-04T00:47:00.191Z,984.27
2023-04-04T00:48:00.215Z,984.30
2023-04-04T00:49:00.145Z,984.35
2023-04-04T00:50:00.162Z,984.29
2023-04-04T00:51:00.125Z,984.25
2023-04-04T00:52:00.121Z,984.30
2023-04-04T00:53:00.176Z,984.25
2023-04-04T00:54:00.099Z,984.28
2023-04-04T00:55:00.065Z,984.28
2023-04-04T00:56:00.057Z,984.30
2023-04-04T00:57:00.037Z,984.23
2023-04-04T00:58:00.029Z,984.35
2023-04-04T00:59:00.031Z,984.26
2023-04-04T00:59:59.991Z,984.25
2023-04-04T01:01:00.030Z,984.26
2023-04-04T01:01:59.966Z,984.27
2023-04-04T01:03:00.007Z,984.23
2023-04-04T01:04:00.198Z,984.20
2023-04-04T01:04:59.941Z,984.14
2023-04-04T01:05:59.913Z,984.12
2023-04-04T01:06:59.934Z,984.15
2023-04-04T01:07:59.894Z,984.16
2023-04-04T01:08:59.867Z,984.11
2023-04-04T01:09:59.857Z,984.12
2023-04-04T01:10:59.838Z,984.10
2023-04-04T01:11:59.839Z,984.12
2023-04-04T01:12:59.821Z,984.12
2023-04-04T01:13:59.806Z,984.15
2023-04-04T01:14:59.791Z,984.13
2023-04-04T01:15:59.779Z,984.17
2023-04-04T01:16:59.882Z,984.14
2023-04-04T01:17:59.774Z,984.13
2023-04-04T01:18:59.773Z,984.09
2023-04-04T01:19:59.727Z,984.05
2023-04-04T01:20:59.708Z,984.07
2023-04-04T01:21:59.695Z,984.10
2023-04-04T01:22:59.684Z,984.05
2023-04-04T01:23:59.675Z,984.05
2023-04-04T01:24:59.652Z,984.03
2023-04-04T01:25:59.641Z,984.06
2023-04-04T01:26:59.622Z,984.04
2023-04-04T01:27:59.616Z,984.01
2023-04-04T01:28:59.614Z,984.01
2023-04-04T01:29:59.593Z,983.99
2023-04-04T01:30:59.652Z,983.96
2023-04-04T01:31:59.571Z,983.93
2023-04-04T01:32:59.708Z,983.95
2023-04-04T01:33:59.537Z,983.99
2023-04-04T01:34:59.543Z,983.97
2023-04-04T01:35:59.531Z,983.95
2023-04-04T01:36:59.493Z,983.96
2023-04-04T01:37:59.502Z,983.91
2023-04-04T01:38:59.476Z,983.95
2023-04-04T01:39:59.457Z,984.00
2023-04-04T01:40:59.442Z,983.82
2023-04-04T01:41:59.449Z,983.93
2023-04-04T01:42:59.426Z,983.91
2023-04-04T01:43:59.406Z,983.99
2023-04-04T01:44:59.393Z,983.95
2023-04-04T01:45:59.412Z,983.92
2023-04-04T01:46:59.360Z,984.00
2023-04-04T01:47:59.391Z,983.94
2023-04-04T01:48:59.337Z,983.90
2023-04-04T01:49:59.325Z,983.91
2023-04-04T01:50:59.331Z,983.95
2023-04-04T01:51:59.291Z,983.89
2023-04-04T01:52:59.288Z,983.89
2023-04-04T01:53:59.278Z,983.91
2023-04-04T01:54:59.260Z,983.91
2023-04-04T01:55:59.263Z,983.92
2023-04-04T01:56:59.231Z,983.89
2023-04-04T01:57:59.225Z,983.95
2023-04-04T01:58:59.260Z,983.92
2023-04-04T01:59:59.201Z,983.96
2023-04-04T02:00:59.179Z,983.92
2023-04-04T02:01:59.175Z,983.94
2023-04-04T02:02:59.247Z,983.97
2023-04-04T02:03:59.163Z,984.02
2023-04-04T02:04:59.424Z,983.93
2023-04-04T02:05:59.111Z,983.98
2023-04-04T02:06:59.131Z,983.94
2023-04-04T02:07:59.091Z,983.92
2023-04-04T02:08:59.088Z,983.92
2023-04-04T02:09:59.063Z,983.97
2023-04-04T02:10:59.054Z,984.01
2023-04-04T02:11:59.033Z,983.97
2023-04-04T02:12:59.015Z,984.02
2023-04-04T02:13:59.000Z,984.01
2023-04-04T02:14:58.994Z,983.98
2023-04-04T02:15:59.004Z,984.04
2023-04-04T02:16:58.962Z,983.98
2023-04-04T02:18:00.620Z,983.94
2023-04-04T02:18:58.936Z,984.04
2023-04-04T02:19:58.919Z,984.03
2023-04-04T02:20:58.903Z,983.97
2023-04-04T02:21:58.892Z,984.08
2023-04-04T02:22:58.902Z,984.06
2023-04-04T02:23:58.874Z,984.08
2023-04-04T02:24:58.859Z,984.03
2023-04-04T02:25:58.844Z,984.04
2023-04-04T02:26:58.830Z,984.10
2023-04-04T02:27:58.828Z,984.00
2023-04-04T02:28:58.805Z,984.03
2023-04-04T02:29:58.792Z,984.02
2023-04-04T02:30:58.819Z,984.04
2023-04-04T02:31:58.767Z,984.04
2023-04-04T02:32:58.760Z,984.00
2023-04-04T02:33:58.734Z,984.04
2023-04-04T02:34:58.916Z,983.98
2023-04-04T02:35:58.739Z,984.00
2023-04-04T02:36:58.699Z,983.97
2023-04-04T02:37:58.700Z,984.02
2023-04-04T02:38:58.691Z,983.96
2023-04-04T02:39:58.653Z,983.94
2023-04-04T02:40:58.644Z,983.98
2023-04-04T02:41:58.644Z,983.99
2023-04-04T02:42:58.617Z,984.01
2023-04-04T02:43:58.605Z,983.93
2023-04-04T02:44:58.589Z,983.97
2023-04-04T02:45:59.747Z,983.97
2023-04-04T02:46:58.603Z,983.95
2023-04-04T02:47:58.571Z,983.95
2023-04-04T02:48:58.540Z,983.96
2023-04-04T02:49:58.530Z,984.01
2023-04-04T02:50:58.511Z,984.02
2023-04-04T02:51:58.501Z,983.95
2023-04-04T02:52:58.487Z,984.03
2023-04-04T02:53:58.472Z,983.90
2023-04-04T02:54:58.484Z,983.97
2023-04-04T02:55:58.453Z,983.86
2023-04-04T02:56:58.436Z,983.94
2023-04-04T02:57:58.426Z,983.93
2023-04-04T02:58:58.426Z,984.01
2023-04-04T02:59:58.390Z,983.93
2023-04-04T03:00:58.391Z,983.90
2023-04-04T03:01:58.408Z,983.92
2023-04-04T03:02:58.507Z,983.93
2023-04-04T03:03:58.409Z,983.89
2023-04-04T03:04:58.330Z,983.94
2023-04-04T03:05:58.311Z,983.93
2023-04-04T03:06:58.300Z,983.90
2023-04-04T03:07:58.356Z,983.89
2023-04-04T03:08:58.273Z,983.91
2023-04-04T03:09:58.261Z,983.93
2023-04-04T03:10:58.273Z,983.94
2023-04-04T03:11:58.232Z,983.88
2023-04-04T03:12:58.317Z,983.94
2023-04-04T03:13:58.200Z,983.96
2023-04-04T03:14:58.198Z,983.93
2023-04-04T03:15:58.172Z,983.98
2023-04-04T03:16:58.425Z,983.92
2023-04-04T03:17:58.204Z,983.90
2023-04-04T03:18:58.142Z,983.90
2023-04-04T03:19:58.126Z,983.94
2023-04-04T03:20:58.120Z,983.94
2023-04-04T03:21:58.104Z,983.87
2023-04-04T03:22:58.085Z,983.86
2023-04-04T03:23:58.079Z,983.92
2023-04-04T03:24:58.050Z,983.83
2023-04-04T03:25:58.039Z,983.83
2023-04-04T03:26:58.052Z,983.85
2023-04-04T03:27:58.010Z,983.86
2023-04-04T03:28:58.005Z,983.85
2023-04-04T03:29:57.986Z,983.93
2023-04-04T03:30:57.972Z,983.88
2023-04-04T03:31:57.996Z,983.90
2023-04-04T03:32:57.988Z,983.84
2023-04-04T03:33:57.938Z,983.85
2023-04-04T03:34:57.913Z,983.91
2023-04-04T03:35:57.934Z,983.87
2023-04-04T03:36:57.889Z,983.88
2023-04-04T03:37:57.874Z,983.83
2023-04-04T03:38:57.863Z,983.92
2023-04-04T03:39:57.847Z,983.93
2023-04-04T03:40:57.839Z,983.89
2023-04-04T03:41:57.821Z,983.89
2023-04-04T03:42:57.840Z,983.82
2023-04-04T03:43:57.795Z,983.85
2023-04-04T03:44:57.779Z,983.84
2023-04-04T03:45:57.852Z,983.80
2023-04-04T03:46:57.763Z,983.86
2023-04-04T03:47:57.776Z,983.81
2023-04-04T03:48:57.747Z,983.83
2023-04-04T03:49:57.713Z,983.89
2023-04-04T03:50:57.702Z,983.86
2023-04-04T03:51:57.685Z,983.86
2023-04-04T03:52:57.673Z,983.91
2023-04-04T03:53:57.668Z,983.88
2023-04-04T03:54:57.644Z,983.88
2023-04-04T03:55:57.635Z,983.85
2023-04-04T03:56:57.622Z,983.85
2023-04-04T03:57:57.606Z,983.85
2023-04-04T03:58:57.656Z,983.88
2023-04-04T03:59:57.614Z,983.85
2023-04-04T04:00:57.558Z,983.86
2023-04-04T04:01:57.544Z,983.82
2023-04-04T04:02:58.102Z,983.87
2023-04-04T04:03:57.535Z,983.83
2023-04-04T04:04:57.513Z,983.84
2023-04-04T04:05:57.491Z,983.87
2023-04-04T04:06:57.502Z,983.87
2023-04-04T04:07:57.465Z,983.86
2023-04-04T04:08:57.456Z,983.85
2023-04-04T04:09:57.684Z,983.89
2023-04-04T04:10:57.432Z,983.88
2023-04-04T04:11:57.415Z,983.94
2023-04-04T04:12:57.400Z,983.91
2023-04-04T04:13:57.389Z,983.90
2023-04-04T04:14:57.399Z,983.95
2023-04-04T04:15:57.411Z,983.86
2023-04-04T04:16:57.341Z,983.84
2023-04-04T04:17:57.374Z,983.92
2023-04-04T04:18:57.314Z,983.86
2023-04-04T04:19:57.307Z,983.90
2023-04-04T04:20:57.301Z,983.96
2023-04-04T04:21:57.279Z,983.85
2023-04-04T04:22:57.265Z,983.90
2023-04-04T04:23:57.251Z,983.86
2023-04-04T04:24:57.268Z,983.87
2023-04-04T04:25:57.223Z,983.86
2023-04-04T04:26:57.211Z,983.88
2023-04-04T04:27:57.208Z,983.86
2023-04-04T04:28:57.433Z,983.91
2023-04-04T04:29:57.170Z,983.92
2023-04-04T04:30:57.179Z,983.92
2023-04-04T04:31:57.291Z,983.86
2023-04-04T04:32:57.173Z,983.88
2023-04-04T04:33:57.115Z,983.89
2023-04-04T04:34:57.107Z,983.96
2023-04-04T04:35:57.504Z,983.93
2023-04-04T04:36:57.076Z,983.96
2023-04-04T04:37:57.059Z,983.91
2023-04-04T04:38:57.050Z,983.87
2023-04-04T04:39:57.037Z,983.95
2023-04-04T04:40:57.027Z,983.98
2023-04-04T04:41:57.020Z,983.93
2023-04-04T04:42:57.004Z,983.98
2023-04-04T04:43:56.985Z,983.98
2023-04-04T04:44:56.975Z,983.98
2023-04-04T04:45:56.964Z,983.95
2023-04-04T04:46:57.028Z,983.94
2023-04-04T04:47:56.966Z,983.94
2023-04-04T04:48:56.995Z,983.97
2023-04-04T04:49:56.896Z,984.01
2023-04-04T04:50:56.888Z,983.98
2023-04-04T04:51:56.872Z,984.02
2023-04-04T04:52:56.866Z,983.99
2023-04-04T04:53:56.851Z,984.03
2023-04-04T04:54:56.840Z,983.93
2023-04-04T04:55:56.835Z,983.96
2023-04-04T04:56:56.811Z,983.99
2023-04-04T04:57:56.797Z,983.99
2023-04-04T04:58:56.805Z,983.98
2023-04-04T04:59:56.768Z,983.97
2023-04-04T05:00:56.798Z,984.04
2023-04-04T05:01:56.779Z,984.04
2023-04-04T05:02:56.898Z,984.05
2023-04-04T05:03:56.716Z,984.08
2023-04-04T05:04:56.702Z,984.08
2023-04-04T05:05:56.680Z,984.10
2023-04-04T05:06:56.679Z,984.05
2023-04-04T05:07:56.665Z,984.01
2023-04-04T05:08:56.652Z,984.15
2023-04-04T05:09:56.631Z,984.03
2023-04-04T05:10:56.618Z,984.01
2023-04-04T05:11:56.624Z,984.05
2023-04-04T05:12:56.592Z,984.09
2023-04-04T05:13:56.572Z,984.00
2023-04-04T05:14:56.561Z,984.07
2023-04-04T05:15:56.557Z,984.03
2023-04-04T05:16:56.674Z,984.06
2023-04-04T05:17:56.539Z,984.11
2023-04-04T05:18:56.526Z,984.10
2023-04-04T05:19:56.534Z,984.04
2023-04-04T05:20:56.483Z,984.12
2023-04-04T05:21:56.479Z,984.13
2023-04-04T05:22:56.458Z,984.08
2023-04-04T05:23:56.472Z,984.14
2023-04-04T05:24:56.426Z,984.15
2023-04-04T05:25:56.411Z,984.14
2023-04-04T05:26:56.399Z,984.16
2023-04-04T05:27:56.386Z,984.16
2023-04-04T05:28:56.376Z,984.17
2023-04-04T05:29:56.361Z,984.14
2023-04-04T05:30:57.410Z,984.19
2023-04-04T05:31:56.385Z,984.22
2023-04-04T05:32:56.407Z,984.08
2023-04-04T05:33:56.306Z,984.16
2023-04-04T05:34:56.314Z,984.11
2023-04-04T05:35:56.488Z,984.13
2023-04-04T05:36:56.270Z,984.12
2023-04-04T05:37:56.253Z,984.10
2023-04-04T05:38:56.240Z,984.14
2023-04-04T05:39:56.227Z,984.15
2023-04-04T05:40:56.210Z,984.11
2023-04-04T05:41:56.191Z,984.11
2023-04-04T05:42:56.182Z,984.10
2023-04-04T05:43:56.171Z,984.12
2023-04-04T05:44:56.162Z,984.09
2023-04-04T05:45:56.185Z,984.19
2023-04-04T05:46:56.133Z,984.08
2023-04-04T05:47:56.158Z,984.02
2023-04-04T05:48:56.110Z,984.07
2023-04-04T05:49:56.095Z,984.12
2023-04-04T05:50:56.102Z,984.09
2023-04-04T05:51:56.138Z,984.08
2023-04-04T05:52:56.140Z,984.02
2023-04-04T05:53:56.032Z,984.00
2023-04-04T05:54:56.020Z,984.00
2023-04-04T05:55:56.005Z,983.96
2023-04-04T05:56:56.000Z,984.01
2023-04-04T05:57:55.986Z,984.00
2023-04-04T05:58:55.982Z,983.96
2023-04-04T05:59:55.956Z,984.01
2023-04-04T06:00:55.943Z,983.93
2023-04-04T06:01:55.928Z,983.90
2023-04-04T06:02:55.984Z,983.94
2023-04-04T06:03:55.908Z,983.93
2023-04-04T06:04:55.887Z,983.91
2023-04-04T06:05:55.966Z,983.95
2023-04-04T06:06:55.883Z,983.96
2023-04-04T06:07:55.856Z,983.90
2023-04-04T06:08:55.840Z,983.89
2023-04-04T06:09:55.820Z,983.81
2023-04-04T06:10:55.809Z,983.83
2023-04-04T06:11:55.797Z,983.85
2023-04-04T06:12:55.786Z,983.79
2023-04-04T06:13:55.778Z,983.78
2023-04-04T06:14:55.757Z,983.77
2023-04-04T06:15:56.189Z,983.80
2023-04-04T06:16:55.811Z,983.80
2023-04-04T06:17:55.758Z,983.81
2023-04-04T06:18:55.699Z,983.85
2023-04-04T06:19:55.707Z,983.83
2023-04-04T06:20:55.670Z,983.86
2023-04-04T06:21:55.659Z,983.78
2023-04-04T06:22:55.664Z,983.79
2023-04-04T06:23:55.632Z,983.67
2023-04-04T06:24:55.652Z,983.75
2023-04-04T06:25:55.606Z,983.72
2023-04-04T06:26:55.801Z,983.75
2023-04-04T06:27:55.585Z,983.68
2023-04-04T06:28:55.567Z,983.69
2023-04-04T06:29:55.554Z,983.69
2023-04-04T06:30:55.536Z,983.71
2023-04-04T06:31:55.595Z,983.65
2023-04-04T06:32:55.553Z,983.65
2023-04-04T06:33:55.490Z,983.66
2023-04-04T06:34:55.482Z,983.59
2023-04-04T06:35:55.494Z,983.58
2023-04-04T06:36:55.459Z,983.65
2023-04-04T06:37:55.863Z,983.59
2023-04-04T06:38:55.504Z,983.62
2023-04-04T06:39:55.417Z,983.61
2023-04-04T06:40:55.405Z,983.63
2023-04-04T06:41:55.381Z,983.55
2023-04-04T06:42:55.386Z,983.52
2023-04-04T06:43:55.351Z,983.54
2023-04-04T06:44:55.358Z,983.52
2023-04-04T06:45:55.325Z,983.57
2023-04-04T06:46:55.388Z,983.55
2023-04-04T06:47:55.347Z,983.56
2023-04-04T06:48:55.290Z,983.55
2023-04-04T06:49:55.279Z,983.49
2023-04-04T06:50:55.261Z,983.53
2023-04-04T06:51:55.307Z,983.50
2023-04-04T06:52:55.283Z,983.46
2023-04-04T06:53:55.223Z,983.47
2023-04-04T06:54:55.237Z,983.43
2023-04-04T06:55:55.200Z,983.42
2023-04-04T06:56:55.180Z,983.44
2023-04-04T06:57:55.182Z,983.42
2023-04-04T06:58:55.176Z,983.33
2023-04-04T06:59:55.143Z,983.36
2023-04-04T07:00:55.170Z,983.33
2023-04-04T07:01:55.147Z,983.34
2023-04-04T07:02:55.112Z,983.30
2023-04-04T07:03:55.091Z,983.28
2023-04-04T07:04:55.072Z,983.32
2023-04-04T07:05:55.065Z,983.26
2023-04-04T07:06:55.040Z,983.22
2023-04-04T07:07:55.032Z,983.24
2023-04-04T07:08:55.050Z,983.24
2023-04-04T07:09:55.006Z,983.25
2023-04-04T07:10:55.051Z,983.29
2023-04-04T07:11:54.977Z,983.19
2023-04-04T07:12:54.986Z,983.26
2023-04-04T07:13:54.949Z,983.25
2023-04-04T07:14:54.941Z,983.20
2023-04-04T07:15:54.930Z,983.22
2023-04-04T07:16:55.189Z,983.22
2023-04-04T07:17:54.962Z,983.14
2023-04-04T07:18:54.883Z,983.11
2023-04-04T07:19:54.867Z,983.14
2023-04-04T07:20:54.853Z,983.16
2023-04-04T07:21:54.847Z,983.12
2023-04-04T07:22:54.835Z,983.18
2023-04-04T07:23:54.815Z,983.16
2023-04-04T07:24:54.797Z,983.09
2023-04-04T07:25:54.786Z,983.11
2023-04-04T07:26:54.815Z,983.14
2023-04-04T07:28:02.362Z,983.14
2023-04-04T07:28:55.800Z,983.09
2023-04-04T07:29:54.763Z,983.17
2023-04-04T07:30:54.726Z,983.15
2023-04-04T07:31:54.749Z,983.11
2023-04-04T07:32:54.746Z,983.13
2023-04-04T07:33:54.778Z,983.06
2023-04-04T07:34:54.666Z,983.10
2023-04-04T07:35:54.747Z,983.12
2023-04-04T07:36:54.645Z,983.08
2023-04-04T07:37:54.626Z,983.08
2023-04-04T07:38:54.619Z,983.01
2023-04-04T07:39:54.601Z,982.98
2023-04-04T07:40:54.579Z,983.11
2023-04-04T07:41:54.571Z,983.01
2023-04-04T07:42:54.578Z,983.09
2023-04-04T07:43:54.539Z,982.98
2023-04-04T07:44:54.522Z,982.95
2023-04-04T07:45:54.572Z,983.01
2023-04-04T07:47:06.181Z,983.02
2023-04-04T07:47:55.595Z,983.00
2023-04-04T07:48:54.480Z,982.85
2023-04-04T07:49:54.517Z,983.01
2023-04-04T07:50:54.448Z,982.95
2023-04-04T07:51:54.426Z,982.98
2023-04-04T07:52:54.461Z,982.90
2023-04-04T07:53:54.404Z,982.96
2023-04-04T07:54:54.537Z,982.96
2023-04-04T07:55:54.377Z,983.00
2023-04-04T07:56:54.362Z,983.08
2023-04-04T07:57:54.347Z,983.03
2023-04-04T07:58:54.370Z,983.13
2023-04-04T07:59:54.420Z,983.06
2023-04-04T08:00:54.311Z,983.00
2023-04-04T08:01:54.311Z,983.04
2023-04-04T08:02:54.386Z,983.05
2023-04-04T08:03:54.446Z,983.02
2023-04-04T08:04:54.414Z,983.03
2023-04-04T08:05:54.242Z,983.01
2023-04-04T08:06:54.224Z,982.97
2023-04-04T08:07:54.210Z,983.05
2023-04-04T08:08:54.200Z,983.04
2023-04-04T08:09:54.533Z,983.08
2023-04-04T08:10:54.181Z,983.03
2023-04-04T08:11:54.165Z,983.12
2023-04-04T08:12:54.144Z,983.14
2023-04-04T08:13:54.130Z,983.10
2023-04-04T08:14:54.146Z,983.12
2023-04-04T08:15:54.139Z,983.05
2023-04-04T08:16:54.089Z,983.04
2023-04-04T08:17:54.094Z,982.98
2023-04-04T08:18:54.067Z,982.98
2023-04-04T08:19:54.053Z,983.02
2023-04-04T08:20:54.037Z,983.05
2023-04-04T08:21:54.025Z,982.92
2023-04-04T08:22:54.032Z,982.97
2023-04-04T08:23:53.986Z,983.04
2023-04-04T08:24:53.974Z,983.07
2023-04-04T08:25:54.012Z,983.06
2023-04-04T08:27:04.522Z,983.03
2023-04-04T08:27:54.959Z,982.96
2023-04-04T08:28:53.923Z,982.96
2023-04-04T08:29:53.925Z,983.00
2023-04-04T08:30:53.931Z,983.03
2023-04-04T08:34:11.573Z,982.98
2023-04-04T08:35:11.556Z,982.89
2023-04-04T08:36:11.542Z,982.97
2023-04-04T08:37:11.525Z,983.03
2023-04-04T08:38:11.520Z,982.93
2023-04-04T08:39:11.493Z,982.91
2023-04-04T08:40:11.480Z,982.93
2023-04-04T08:41:11.480Z,982.97
2023-04-04T08:42:11.460Z,982.94
2023-04-04T08:43:11.438Z,982.94
2023-04-04T08:44:11.428Z,982.96
2023-04-04T08:45:11.415Z,982.99
2023-04-04T08:46:11.745Z,982.91
2023-04-04T08:47:11.448Z,982.81
2023-04-04T08:48:11.384Z,982.81
2023-04-04T08:49:11.370Z,983.00
2023-04-04T08:50:11.353Z,982.86
2023-04-04T08:51:11.347Z,982.89
2023-04-04T08:52:11.326Z,983.10
2023-04-04T08:53:11.313Z,982.85
2023-04-04T08:54:11.513Z,982.93
2023-04-04T08:55:11.300Z,982.97
2023-04-04T08:56:11.272Z,982.78
2023-04-04T08:57:11.260Z,982.90
2023-04-04T08:58:11.393Z,983.00
2023-04-04T08:59:11.342Z,982.89
2023-04-04T09:00:11.563Z,982.83
2023-04-04T09:01:11.252Z,982.94
2023-04-04T09:02:11.245Z,982.81
2023-04-04T09:03:11.214Z,982.77
2023-04-04T09:04:11.175Z,982.78
2023-04-04T09:05:11.305Z,982.80
2023-04-04T09:06:11.143Z,982.89
2023-04-04T09:07:11.136Z,982.76
2023-04-04T09:08:11.123Z,982.84
2023-04-04T09:09:11.102Z,982.83
2023-04-04T09:10:11.099Z,982.84
2023-04-04T09:11:11.305Z,982.88
2023-04-04T09:12:11.060Z,982.78
2023-04-04T09:13:15.991Z,982.92
2023-04-04T09:14:11.035Z,982.75
2023-04-04T09:15:11.028Z,982.84
2023-04-04T09:16:11.042Z,982.88
2023-04-04T09:17:11.046Z,982.75
2023-04-04T09:18:11.076Z,982.75
2023-04-04T09:19:10.983Z,982.70
2023-04-04T09:20:10.956Z,982.80
2023-04-04T09:21:10.943Z,982.75
2023-04-04T09:22:10.931Z,982.73
2023-04-04T09:23:10.912Z,982.72
2023-04-04T09:24:10.904Z,982.71
2023-04-04T09:25:10.888Z,982.70
2023-04-04T09:26:10.871Z,982.75
2023-04-04T09:27:10.875Z,982.78
2023-04-04T09:28:10.841Z,982.73
2023-04-04T09:29:10.833Z,982.73
2023-04-04T09:30:10.814Z,982.68
2023-04-04T09:31:10.801Z,982.74
2023-04-04T09:32:10.878Z,982.75
2023-04-04T09:33:10.774Z,982.70
2023-04-04T09:34:10.792Z,982.76
2023-04-04T09:35:10.750Z,982.79
2023-04-04T09:36:10.768Z,982.79
2023-04-04T09:37:10.719Z,982.82
2023-04-04T09:38:10.712Z,982.77
2023-04-04T09:39:10.692Z,982.82
2023-04-04T09:40:10.704Z,982.69
2023-04-04T09:41:10.672Z,982.76
2023-04-04T09:42:10.661Z,982.69
2023-04-04T09:43:10.640Z,982.69
2023-04-04T09:44:10.629Z,982.62
2023-04-04T09:45:13.256Z,982.70
2023-04-04T09:46:11.674Z,982.73
2023-04-04T09:47:13.611Z,982.70
2023-04-04T09:48:10.621Z,982.67
2023-04-04T09:49:13.107Z,982.68
2023-04-04T09:50:10.573Z,982.62
2023-04-04T09:51:10.528Z,982.61
2023-04-04T09:52:10.536Z,982.65
2023-04-04T09:53:10.504Z,982.71
2023-04-04T09:54:18.778Z,982.63
2023-04-04T09:55:11.530Z,982.70
2023-04-04T09:56:10.467Z,982.66
2023-04-04T09:57:10.465Z,982.62
2023-04-04T09:58:10.440Z,982.64
2023-04-04T09:59:10.511Z,982.58
2023-04-04T10:00:10.422Z,982.57
2023-04-04T10:01:10.438Z,982.59
2023-04-04T10:02:10.393Z,982.61
2023-04-04T10:03:10.376Z,982.62
2023-04-04T10:04:10.452Z,982.52
2023-04-04T10:05:10.426Z,982.62
2023-04-04T10:06:10.366Z,982.59
2023-04-04T10:07:10.320Z,982.72
2023-04-04T10:08:10.307Z,982.59
2023-04-04T10:09:10.309Z,982.65
2023-04-04T10:10:10.294Z,982.74
2023-04-04T10:11:12.331Z,982.64
2023-04-04T10:12:10.258Z,982.64
2023-04-04T10:13:10.244Z,982.60
2023-04-04T10:14:10.225Z,982.60
2023-04-04T10:15:10.214Z,982.56
2023-04-04T10:16:10.259Z,982.49
2023-04-04T10:17:10.420Z,982.54
2023-04-04T10:18:10.177Z,982.50
2023-04-04T10:19:10.161Z,982.49
2023-04-04T10:20:10.179Z,982.65
2023-04-04T10:21:15.281Z,982.45
2023-04-04T10:22:10.155Z,982.54
2023-04-04T10:23:10.101Z,982.55
2023-04-04T10:24:10.356Z,982.46
2023-04-04T10:25:10.076Z,982.43
2023-04-04T10:26:10.124Z,982.52
2023-04-04T10:27:10.048Z,982.47
2023-04-04T10:28:10.040Z,982.51
2023-04-04T10:29:10.030Z,982.49
2023-04-04T10:30:10.027Z,982.46
2023-04-04T10:31:10.063Z,982.48
2023-04-04T10:32:10.014Z,982.43
2023-04-04T10:33:10.072Z,982.47
2023-04-04T10:34:09.975Z,982.50
2023-04-04T10:35:09.948Z,982.50
2023-04-04T10:36:09.984Z,982.40
2023-04-04T10:37:12.833Z,982.52
2023-04-04T10:38:09.954Z,982.45
2023-04-04T10:39:09.907Z,982.31
2023-04-04T10:40:09.882Z,982.49
2023-04-04T10:41:09.866Z,982.52
2023-04-04T10:42:09.854Z,982.57
2023-04-04T10:43:09.842Z,982.54
2023-04-04T10:44:09.831Z,982.47
2023-04-04T10:45:19.809Z,982.48
2023-04-04T10:46:10.849Z,982.42
2023-04-04T10:47:09.787Z,982.42
2023-04-04T10:48:10.653Z,982.39
2023-04-04T10:49:09.763Z,982.39
2023-04-04T10:50:09.747Z,982.41
2023-04-04T10:51:09.733Z,982.52
2023-04-04T10:52:09.724Z,982.39
2023-04-04T10:53:09.731Z,982.36
2023-04-04T10:54:09.713Z,982.48
2023-04-04T10:55:09.682Z,982.54
2023-04-04T10:56:09.776Z,982.49
2023-04-04T10:57:09.653Z,982.57
2023-04-04T10:58:09.645Z,982.56
2023-04-04T10:59:09.662Z,982.56
2023-04-04T11:00:09.696Z,982.49
2023-04-04T11:01:09.645Z,982.59
2023-04-04T11:02:09.588Z,982.53
2023-04-04T11:03:09.679Z,982.57
2023-04-04T11:04:09.579Z,982.52
2023-04-04T11:05:09.543Z,982.64
2023-04-04T11:06:09.534Z,982.60
2023-04-04T11:07:09.529Z,982.57
2023-04-04T11:08:09.909Z,982.49
2023-04-04T11:09:09.514Z,982.41
2023-04-04T11:10:09.553Z,982.55
2023-04-04T11:11:21.831Z,982.43
2023-04-04T11:12:10.480Z,982.32
2023-04-04T11:13:13.261Z,982.28
2023-04-04T11:14:10.867Z,982.21
2023-04-04T11:15:09.412Z,982.22
2023-04-04T11:16:09.420Z,982.24
2023-04-04T11:17:09.385Z,982.18
2023-04-04T11:18:22.257Z,982.35
2023-04-04T11:19:10.391Z,982.33
2023-04-04T11:20:09.341Z,982.36
2023-04-04T11:21:09.686Z,982.35
2023-04-04T11:22:09.315Z,982.26
2023-04-04T11:23:09.305Z,982.14
2023-04-04T11:24:09.287Z,982.07
2023-04-04T11:25:09.274Z,982.09
2023-04-04T11:26:09.306Z,982.21
2023-04-04T11:27:09.256Z,982.09
2023-04-04T11:28:09.242Z,982.06
2023-04-04T11:29:09.223Z,982.14
2023-04-04T11:30:09.216Z,982.06
2023-04-04T11:31:09.191Z,982.20
2023-04-04T11:32:09.232Z,982.22
2023-04-04T11:33:09.247Z,982.16
2023-04-04T11:34:09.159Z,982.04
2023-04-04T11:35:09.139Z,982.10
2023-04-04T11:36:09.187Z,982.07
2023-04-04T11:37:09.311Z,982.02
2023-04-04T11:38:09.097Z,982.06
2023-04-04T11:39:09.087Z,982.06
2023-04-04T11:40:09.086Z,982.06
2023-04-04T11:41:09.208Z,982.15
2023-04-04T11:42:09.078Z,982.08
2023-04-04T11:43:09.033Z,982.03
2023-04-04T11:44:09.180Z,982.03
2023-04-04T11:45:09.005Z,982.05
2023-04-04T11:46:09.110Z,982.02
2023-04-04T11:47:08.983Z,982.03
2023-04-04T11:48:08.968Z,982.05
2023-04-04T11:49:08.951Z,982.02
2023-04-04T11:50:08.937Z,982.06
2023-04-04T11:51:08.929Z,982.06
2023-04-04T11:52:09.004Z,982.01
2023-04-04T11:53:08.901Z,982.02
2023-04-04T11:54:08.886Z,982.08
2023-04-04T11:55:08.871Z,982.10
2023-04-04T11:56:08.859Z,982.12
2023-04-04T11:57:08.842Z,982.06
2023-04-04T11:58:11.337Z,982.09
2023-04-04T11:59:11.758Z,982.06
2023-04-04T12:00:08.824Z,982.05
2023-04-04T12:01:08.793Z,981.99
2023-04-04T12:02:08.811Z,981.99
2023-04-04T12:03:08.886Z,981.93
2023-04-04T12:04:08.756Z,981.92
2023-04-04T12:05:08.884Z,981.86
2023-04-04T12:06:08.822Z,981.89
2023-04-04T12:07:08.712Z,981.90
2023-04-04T12:08:08.764Z,981.94
2023-04-04T12:09:08.690Z,981.90
2023-04-04T12:10:08.871Z,981.93
2023-04-04T12:11:08.661Z,982.00
2023-04-04T12:12:08.656Z,981.99
2023-04-04T12:13:08.633Z,982.01
2023-04-04T12:14:08.643Z,981.92
2023-04-04T12:15:16.895Z,981.97
2023-04-04T12:16:09.684Z,981.89
2023-04-04T12:17:08.634Z,981.93
2023-04-04T12:18:08.674Z,981.97
2023-04-04T12:19:08.548Z,981.93
2023-04-04T12:20:08.551Z,981.91
2023-04-04T12:21:08.533Z,981.87
2023-04-04T12:22:08.641Z,981.87
2023-04-04T12:23:08.537Z,981.81
2023-04-04T12:24:08.489Z,981.82
2023-04-04T12:25:08.467Z,981.75
2023-04-04T12:26:08.466Z,981.75
2023-04-04T12:27:08.457Z,981.90
2023-04-04T12:28:08.514Z,981.93
2023-04-04T12:29:08.431Z,981.88
2023-04-04T12:30:08.433Z,981.92